sensor_id;sensor_type;location;lat;lon;timestamp;pressure;altitude;pressure_sealevel;temperature;humidity
62632;BME280;48703;51.248;-0.546;2023-04-19T00:00:51;101914;;;8.28;83.83
62632;BME280;48703;51.248;-0.546;2023-04-19T00:03:53;101915;;;8.28;83.58
62632;BME280;48703;51.248;-0.546;2023-04-19T00:06:55;101916;;;8.27;83.74
62632;BME280;48703;51.248;-0.546;2023-04-19T00:09:57;101915;;;8.27;83.63
62632;BME280;48703;51.248;-0.546;2023-04-19T00:12:59;101914;;;8.27;84.20
62632;BME280;48703;51.248;-0.546;2023-04-19T00:16:01;101910;;;8.26;84.49
62632;BME280;48703;51.248;-0.546;2023-04-19T00:19:03;101906;;;8.25;84.86
62632;BME280;48703;51.248;-0.546;2023-04-19T00:22:05;101903;;;8.26;84.36
62632;BME280;48703;51.248;-0.546;2023-04-19T00:25:08;101900;;;8.26;85.00
62632;BME280;48703;51.248;-0.546;2023-04-19T00:28:09;101897;;;8.24;85.03
62632;BME280;48703;51.248;-0.546;2023-04-19T00:31:11;101894;;;8.22;85.29
62632;BME280;48703;51.248;-0.546;2023-04-19T00:34:13;101892;;;8.21;84.91
62632;BME280;48703;51.248;-0.546;2023-04-19T00:37:15;101893;;;8.21;84.89
62632;BME280;48703;51.248;-0.546;2023-04-19T00:40:18;101893;;;8.20;84.77
62632;BME280;48703;51.248;-0.546;2023-04-19T00:43:19;101888;;;8.21;85.15
62632;BME280;48703;51.248;-0.546;2023-04-19T00:46:21;101882;;;8.21;84.93
62632;BME280;48703;51.248;-0.546;2023-04-19T00:49:23;101877;;;8.21;85.42
62632;BME280;48703;51.248;-0.546;2023-04-19T00:52:25;101876;;;8.21;84.69
62632;BME280;48703;51.248;-0.546;2023-04-19T00:55:28;101876;;;8.21;85.42
62632;BME280;48703;51.248;-0.546;2023-04-19T00:58:29;101877;;;8.20;85.65
62632;BME280;48703;51.248;-0.546;2023-04-19T01:01:32;101873;;;8.18;85.41
62632;BME280;48703;51.248;-0.546;2023-04-19T01:04:34;101871;;;8.18;85.92
62632;BME280;48703;51.248;-0.546;2023-04-19T01:07:36;101867;;;8.18;85.60
62632;BME280;48703;51.248;-0.546;2023-04-19T01:10:38;101864;;;8.15;85.84
62632;BME280;48703;51.248;-0.546;2023-04-19T01:13:40;101866;;;8.15;86.12
62632;BME280;48703;51.248;-0.546;2023-04-19T01:16:42;101865;;;8.14;85.59
62632;BME280;48703;51.248;-0.546;2023-04-19T01:19:44;101863;;;8.14;86.11
62632;BME280;48703;51.248;-0.546;2023-04-19T01:22:46;101860;;;8.13;86.30
62632;BME280;48703;51.248;-0.546;2023-04-19T01:25:48;101858;;;8.12;86.31
62632;BME280;48703;51.248;-0.546;2023-04-19T01:28:50;101855;;;8.11;86.43
62632;BME280;48703;51.248;-0.546;2023-04-19T01:31:52;101852;;;8.09;86.39
62632;BME280;48703;51.248;-0.546;2023-04-19T01:34:54;101853;;;8.09;86.12
62632;BME280;48703;51.248;-0.546;2023-04-19T01:37:56;101853;;;8.07;86.40
62632;BME280;48703;51.248;-0.546;2023-04-19T01:40:58;101851;;;8.03;86.18
62632;BME280;48703;51.248;-0.546;2023-04-19T01:44:00;101850;;;7.99;86.64
62632;BME280;48703;51.248;-0.546;2023-04-19T01:47:02;101849;;;7.94;86.45
62632;BME280;48703;51.248;-0.546;2023-04-19T01:50:04;101846;;;7.90;86.53
62632;BME280;48703;51.248;-0.546;2023-04-19T01:53:06;101845;;;7.85;86.24
62632;BME280;48703;51.248;-0.546;2023-04-19T01:56:08;101842;;;7.79;86.61
62632;BME280;48703;51.248;-0.546;2023-04-19T01:59:10;101841;;;7.76;87.10
62632;BME280;48703;51.248;-0.546;2023-04-19T02:02:12;101839;;;7.69;86.83
62632;BME280;48703;51.248;-0.546;2023-04-19T02:05:14;101838;;;7.67;86.91
62632;BME280;48703;51.248;-0.546;2023-04-19T02:08:16;101834;;;7.61;87.36
62632;BME280;48703;51.248;-0.546;2023-04-19T02:11:18;101829;;;7.53;87.80
62632;BME280;48703;51.248;-0.546;2023-04-19T02:14:20;101831;;;7.49;87.39
62632;BME280;48703;51.248;-0.546;2023-04-19T02:17:22;101829;;;7.45;87.69
62632;BME280;48703;51.248;-0.546;2023-04-19T02:20:24;101830;;;7.40;87.98
62632;BME280;48703;51.248;-0.546;2023-04-19T02:23:26;101828;;;7.37;87.51
62632;BME280;48703;51.248;-0.546;2023-04-19T02:26:28;101828;;;7.34;87.40
62632;BME280;48703;51.248;-0.546;2023-04-19T02:29:30;101826;;;7.30;87.71
62632;BME280;48703;51.248;-0.546;2023-04-19T02:32:32;101824;;;7.25;87.52
62632;BME280;48703;51.248;-0.546;2023-04-19T02:35:34;101822;;;7.20;87.52
62632;BME280;48703;51.248;-0.546;2023-04-19T02:38:36;101820;;;7.16;88.09
62632;BME280;48703;51.248;-0.546;2023-04-19T02:41:38;101818;;;7.07;88.85
62632;BME280;48703;51.248;-0.546;2023-04-19T02:44:40;101814;;;7.00;88.61
62632;BME280;48703;51.248;-0.546;2023-04-19T02:47:42;101812;;;6.96;88.47
62632;BME280;48703;51.248;-0.546;2023-04-19T02:50:44;101810;;;6.89;88.81
62632;BME280;48703;51.248;-0.546;2023-04-19T02:53:46;101808;;;6.86;88.34
62632;BME280;48703;51.248;-0.546;2023-04-19T02:56:48;101810;;;6.83;88.46
62632;BME280;48703;51.248;-0.546;2023-04-19T02:59:50;101810;;;6.82;88.56
62632;BME280;48703;51.248;-0.546;2023-04-19T03:02:53;101810;;;6.79;88.81
62632;BME280;48703;51.248;-0.546;2023-04-19T03:05:54;101810;;;6.77;89.01
62632;BME280;48703;51.248;-0.546;2023-04-19T03:08:56;101809;;;6.73;88.47
62632;BME280;48703;51.248;-0.546;2023-04-19T03:11:58;101806;;;6.72;88.73
62632;BME280;48703;51.248;-0.546;2023-04-19T03:15:00;101806;;;6.71;88.74
62632;BME280;48703;51.248;-0.546;2023-04-19T03:18:02;101805;;;6.77;89.56
62632;BME280;48703;51.248;-0.546;2023-04-19T03:21:05;101803;;;6.81;89.29
62632;BME280;48703;51.248;-0.546;2023-04-19T03:24:07;101805;;;6.80;89.16
62632;BME280;48703;51.248;-0.546;2023-04-19T03:27:09;101803;;;6.78;89.41
62632;BME280;48703;51.248;-0.546;2023-04-19T03:30:11;101803;;;6.75;90.49
62632;BME280;48703;51.248;-0.546;2023-04-19T03:33:13;101797;;;6.70;90.65
62632;BME280;48703;51.248;-0.546;2023-04-19T03:36:15;101794;;;6.69;90.44
62632;BME280;48703;51.248;-0.546;2023-04-19T03:39:17;101798;;;6.70;89.59
62632;BME280;48703;51.248;-0.546;2023-04-19T03:42:19;101800;;;6.72;89.53
62632;BME280;48703;51.248;-0.546;2023-04-19T03:45:21;101804;;;6.75;89.59
62632;BME280;48703;51.248;-0.546;2023-04-19T03:48:23;101805;;;6.78;89.94
62632;BME280;48703;51.248;-0.546;2023-04-19T03:51:25;101799;;;6.77;90.57
62632;BME280;48703;51.248;-0.546;2023-04-19T03:54:27;101798;;;6.77;91.50
62632;BME280;48703;51.248;-0.546;2023-04-19T03:57:29;101795;;;6.83;90.28
62632;BME280;48703;51.248;-0.546;2023-04-19T04:00:31;101797;;;6.83;90.25
62632;BME280;48703;51.248;-0.546;2023-04-19T04:03:33;101794;;;6.86;89.95
62632;BME280;48703;51.248;-0.546;2023-04-19T04:06:35;101790;;;6.90;90.02
62632;BME280;48703;51.248;-0.546;2023-04-19T04:09:37;101787;;;6.90;90.63
62632;BME280;48703;51.248;-0.546;2023-04-19T04:12:39;101784;;;6.87;90.58
62632;BME280;48703;51.248;-0.546;2023-04-19T04:15:41;101789;;;6.86;89.85
62632;BME280;48703;51.248;-0.546;2023-04-19T04:18:43;101793;;;6.87;89.91
62632;BME280;48703;51.248;-0.546;2023-04-19T04:21:45;101792;;;6.85;90.44
62632;BME280;48703;51.248;-0.546;2023-04-19T04:24:47;101790;;;6.83;90.58
62632;BME280;48703;51.248;-0.546;2023-04-19T04:27:49;101791;;;6.82;90.76
62632;BME280;48703;51.248;-0.546;2023-04-19T04:30:51;101789;;;6.80;91.62
62632;BME280;48703;51.248;-0.546;2023-04-19T04:33:53;101785;;;6.80;91.09
62632;BME280;48703;51.248;-0.546;2023-04-19T04:36:55;101781;;;6.81;91.16
62632;BME280;48703;51.248;-0.546;2023-04-19T04:39:57;101782;;;6.83;91.77
62632;BME280;48703;51.248;-0.546;2023-04-19T04:42:59;101787;;;6.83;91.04
62632;BME280;48703;51.248;-0.546;2023-04-19T04:46:01;101786;;;6.85;91.21
62632;BME280;48703;51.248;-0.546;2023-04-19T04:49:03;101782;;;6.84;91.12
62632;BME280;48703;51.248;-0.546;2023-04-19T04:52:05;101779;;;6.86;91.82
62632;BME280;48703;51.248;-0.546;2023-04-19T04:55:07;101781;;;6.87;91.05
62632;BME280;48703;51.248;-0.546;2023-04-19T04:58:09;101786;;;6.89;91.15
62632;BME280;48703;51.248;-0.546;2023-04-19T05:01:11;101789;;;6.92;91.79
62632;BME280;48703;51.248;-0.546;2023-04-19T05:04:13;101790;;;6.96;91.84
62632;BME280;48703;51.248;-0.546;2023-04-19T05:07:15;101790;;;6.97;92.02
62632;BME280;48703;51.248;-0.546;2023-04-19T05:10:17;101791;;;7.00;92.42
62632;BME280;48703;51.248;-0.546;2023-04-19T05:13:19;101795;;;7.02;92.29
62632;BME280;48703;51.248;-0.546;2023-04-19T05:16:21;101795;;;7.05;92.08
62632;BME280;48703;51.248;-0.546;2023-04-19T05:19:23;101793;;;7.07;92.34
62632;BME280;48703;51.248;-0.546;2023-04-19T05:22:26;101795;;;7.09;91.67
62632;BME280;48703;51.248;-0.546;2023-04-19T05:25:27;101798;;;7.12;92.39
62632;BME280;48703;51.248;-0.546;2023-04-19T05:28:29;101801;;;7.16;92.13
62632;BME280;48703;51.248;-0.546;2023-04-19T05:31:31;101802;;;7.19;92.24
62632;BME280;48703;51.248;-0.546;2023-04-19T05:34:34;101803;;;7.23;92.08
62632;BME280;48703;51.248;-0.546;2023-04-19T05:37:35;101803;;;7.28;92.65
62632;BME280;48703;51.248;-0.546;2023-04-19T05:40:37;101803;;;7.31;92.84
62632;BME280;48703;51.248;-0.546;2023-04-19T05:43:39;101800;;;7.34;92.42
62632;BME280;48703;51.248;-0.546;2023-04-19T05:46:41;101801;;;7.37;92.19
62632;BME280;48703;51.248;-0.546;2023-04-19T05:49:43;101803;;;7.41;92.28
62632;BME280;48703;51.248;-0.546;2023-04-19T05:52:45;101803;;;7.45;92.06
62632;BME280;48703;51.248;-0.546;2023-04-19T05:55:47;101804;;;7.49;92.54
62632;BME280;48703;51.248;-0.546;2023-04-19T05:58:49;101806;;;7.52;92.33
62632;BME280;48703;51.248;-0.546;2023-04-19T06:01:51;101809;;;7.56;92.16
62632;BME280;48703;51.248;-0.546;2023-04-19T06:04:53;101808;;;7.60;92.53
62632;BME280;48703;51.248;-0.546;2023-04-19T06:07:55;101808;;;7.64;92.50
62632;BME280;48703;51.248;-0.546;2023-04-19T06:10:58;101809;;;7.68;92.53
62632;BME280;48703;51.248;-0.546;2023-04-19T06:13:59;101810;;;7.73;92.20
62632;BME280;48703;51.248;-0.546;2023-04-19T06:17:01;101811;;;7.79;92.05
62632;BME280;48703;51.248;-0.546;2023-04-19T06:20:04;101810;;;7.86;92.19
62632;BME280;48703;51.248;-0.546;2023-04-19T06:23:06;101810;;;7.93;91.90
62632;BME280;48703;51.248;-0.546;2023-04-19T06:26:08;101810;;;8.02;92.33
62632;BME280;48703;51.248;-0.546;2023-04-19T06:29:10;101806;;;8.09;92.15
62632;BME280;48703;51.248;-0.546;2023-04-19T06:32:12;101811;;;8.15;91.45
62632;BME280;48703;51.248;-0.546;2023-04-19T06:35:14;101812;;;8.19;91.31
62632;BME280;48703;51.248;-0.546;2023-04-19T06:38:16;101812;;;8.24;91.03
62632;BME280;48703;51.248;-0.546;2023-04-19T06:41:18;101815;;;8.32;91.19
62632;BME280;48703;51.248;-0.546;2023-04-19T06:44:20;101811;;;8.38;90.95
62632;BME280;48703;51.248;-0.546;2023-04-19T06:47:22;101814;;;8.45;90.79
62632;BME280;48703;51.248;-0.546;2023-04-19T06:50:24;101815;;;8.54;90.70
62632;BME280;48703;51.248;-0.546;2023-04-19T06:53:26;101814;;;8.64;89.97
62632;BME280;48703;51.248;-0.546;2023-04-19T06:56:37;101814;;;8.72;89.99
62632;BME280;48703;51.248;-0.546;2023-04-19T06:59:30;101813;;;8.79;89.80
62632;BME280;48703;51.248;-0.546;2023-04-19T07:02:32;101814;;;8.84;89.30
62632;BME280;48703;51.248;-0.546;2023-04-19T07:05:35;101814;;;8.88;89.18
62632;BME280;48703;51.248;-0.546;2023-04-19T07:08:36;101817;;;8.90;88.58
62632;BME280;48703;51.248;-0.546;2023-04-19T07:11:38;101821;;;8.93;88.56
62632;BME280;48703;51.248;-0.546;2023-04-19T07:14:40;101824;;;8.95;88.23
62632;BME280;48703;51.248;-0.546;2023-04-19T07:17:42;101826;;;8.97;88.33
62632;BME280;48703;51.248;-0.546;2023-04-19T07:20:44;101828;;;9.00;88.21
62632;BME280;48703;51.248;-0.546;2023-04-19T07:23:46;101830;;;9.03;88.17
62632;BME280;48703;51.248;-0.546;2023-04-19T07:26:48;101832;;;9.05;88.28
62632;BME280;48703;51.248;-0.546;2023-04-19T07:29:50;101835;;;9.10;87.93
62632;BME280;48703;51.248;-0.546;2023-04-19T07:32:52;101840;;;9.11;87.92
62632;BME280;48703;51.248;-0.546;2023-04-19T07:35:54;101843;;;9.16;87.85
62632;BME280;48703;51.248;-0.546;2023-04-19T07:38:56;101841;;;9.19;87.44
62632;BME280;48703;51.248;-0.546;2023-04-19T07:41:58;101843;;;9.21;87.41
62632;BME280;48703;51.248;-0.546;2023-04-19T07:45:00;101846;;;9.27;87.53
62632;BME280;48703;51.248;-0.546;2023-04-19T07:48:02;101847;;;9.31;87.40
62632;BME280;48703;51.248;-0.546;2023-04-19T07:51:08;101848;;;9.37;87.41
62632;BME280;48703;51.248;-0.546;2023-04-19T07:54:06;101848;;;9.46;87.24
62632;BME280;48703;51.248;-0.546;2023-04-19T07:57:08;101849;;;9.54;86.83
62632;BME280;48703;51.248;-0.546;2023-04-19T08:00:11;101853;;;9.62;86.69
62632;BME280;48703;51.248;-0.546;2023-04-19T08:03:12;101853;;;9.70;86.57
62632;BME280;48703;51.248;-0.546;2023-04-19T08:06:14;101850;;;9.76;86.29
62632;BME280;48703;51.248;-0.546;2023-04-19T08:09:16;101850;;;9.84;86.58
62632;BME280;48703;51.248;-0.546;2023-04-19T08:12:18;101852;;;9.92;85.94
62632;BME280;48703;51.248;-0.546;2023-04-19T08:15:20;101855;;;10.00;85.44
62632;BME280;48703;51.248;-0.546;2023-04-19T08:18:22;101858;;;10.08;85.26
62632;BME280;48703;51.248;-0.546;2023-04-19T08:21:24;101857;;;10.13;84.39
62632;BME280;48703;51.248;-0.546;2023-04-19T08:24:26;101859;;;10.21;84.60
62632;BME280;48703;51.248;-0.546;2023-04-19T08:27:28;101860;;;10.28;83.97
62632;BME280;48703;51.248;-0.546;2023-04-19T08:30:30;101859;;;10.34;83.87
62632;BME280;48703;51.248;-0.546;2023-04-19T08:33:32;101858;;;10.43;83.92
62632;BME280;48703;51.248;-0.546;2023-04-19T08:36:34;101858;;;10.51;82.97
62632;BME280;48703;51.248;-0.546;2023-04-19T08:39:36;101859;;;10.53;82.73
62632;BME280;48703;51.248;-0.546;2023-04-19T08:42:38;101859;;;10.55;82.52
62632;BME280;48703;51.248;-0.546;2023-04-19T08:45:40;101860;;;10.61;82.86
62632;BME280;48703;51.248;-0.546;2023-04-19T08:48:42;101855;;;10.73;83.06
62632;BME280;48703;51.248;-0.546;2023-04-19T08:51:45;101855;;;10.81;83.00
62632;BME280;48703;51.248;-0.546;2023-04-19T08:54:46;101853;;;10.91;81.94
62632;BME280;48703;51.248;-0.546;2023-04-19T08:57:48;101854;;;11.03;81.15
62632;BME280;48703;51.248;-0.546;2023-04-19T09:00:51;101851;;;11.17;82.27
62632;BME280;48703;51.248;-0.546;2023-04-19T09:03:53;101852;;;11.32;80.74
62632;BME280;48703;51.248;-0.546;2023-04-19T09:06:55;101856;;;11.42;80.56
62632;BME280;48703;51.248;-0.546;2023-04-19T09:10:05;101853;;;11.50;79.55
62632;BME280;48703;51.248;-0.546;2023-04-19T09:12:59;101850;;;11.62;80.10
62632;BME280;48703;51.248;-0.546;2023-04-19T09:16:01;101850;;;11.72;79.53
62632;BME280;48703;51.248;-0.546;2023-04-19T09:19:03;101850;;;11.77;77.94
62632;BME280;48703;51.248;-0.546;2023-04-19T09:22:11;101848;;;11.81;77.83
62632;BME280;48703;51.248;-0.546;2023-04-19T09:25:07;101846;;;11.86;77.35
62632;BME280;48703;51.248;-0.546;2023-04-19T09:28:09;101847;;;11.92;77.12
62632;BME280;48703;51.248;-0.546;2023-04-19T09:31:11;101851;;;11.99;77.01
62632;BME280;48703;51.248;-0.546;2023-04-19T09:34:13;101847;;;12.08;76.76
62632;BME280;48703;51.248;-0.546;2023-04-19T09:36:26;101843;;;12.13;76.63
62632;BME280;48703;51.248;-0.546;2023-04-19T09:39:27;101848;;;12.22;76.49
62632;BME280;48703;51.248;-0.546;2023-04-19T09:42:18;101849;;;12.25;75.85
62632;BME280;48703;51.248;-0.546;2023-04-19T09:45:20;101851;;;12.30;76.55
62632;BME280;48703;51.248;-0.546;2023-04-19T09:48:22;101846;;;12.40;77.16
62632;BME280;48703;51.248;-0.546;2023-04-19T09:51:25;101841;;;12.43;75.15
62632;BME280;48703;51.248;-0.546;2023-04-19T09:54:26;101844;;;12.50;75.77
62632;BME280;48703;51.248;-0.546;2023-04-19T09:57:29;101845;;;12.57;75.39
62632;BME280;48703;51.248;-0.546;2023-04-19T10:00:32;101840;;;12.61;73.84
62632;BME280;48703;51.248;-0.546;2023-04-19T10:03:32;101836;;;12.66;74.76
62632;BME280;48703;51.248;-0.546;2023-04-19T10:06:34;101831;;;12.77;74.18
62632;BME280;48703;51.248;-0.546;2023-04-19T10:09:36;101829;;;12.86;73.48
62632;BME280;48703;51.248;-0.546;2023-04-19T10:12:38;101831;;;12.97;73.33
62632;BME280;48703;51.248;-0.546;2023-04-19T10:15:40;101833;;;12.98;72.94
62632;BME280;48703;51.248;-0.546;2023-04-19T10:18:42;101830;;;13.03;72.92
62632;BME280;48703;51.248;-0.546;2023-04-19T10:21:45;101830;;;13.06;73.04
62632;BME280;48703;51.248;-0.546;2023-04-19T10:25:19;101833;;;13.14;72.54
62632;BME280;48703;51.248;-0.546;2023-04-19T10:27:48;101832;;;13.17;72.29
62632;BME280;48703;51.248;-0.546;2023-04-19T10:30:52;101831;;;13.25;72.34
62632;BME280;48703;51.248;-0.546;2023-04-19T10:33:53;101829;;;13.26;70.56
62632;BME280;48703;51.248;-0.546;2023-04-19T10:36:56;101826;;;13.31;71.16
62632;BME280;48703;51.248;-0.546;2023-04-19T10:39:56;101826;;;13.38;69.82
62632;BME280;48703;51.248;-0.546;2023-04-19T10:43:21;101824;;;13.41;68.74
62632;BME280;48703;51.248;-0.546;2023-04-19T10:46:01;101816;;;13.42;69.09
62632;BME280;48703;51.248;-0.546;2023-04-19T10:49:03;101822;;;13.45;69.24
62632;BME280;48703;51.248;-0.546;2023-04-19T10:52:04;101822;;;13.44;69.12
62632;BME280;48703;51.248;-0.546;2023-04-19T10:55:07;101816;;;13.42;69.16
62632;BME280;48703;51.248;-0.546;2023-04-19T10:58:09;101817;;;13.38;68.70
62632;BME280;48703;51.248;-0.546;2023-04-19T11:01:30;101814;;;13.39;69.88
62632;BME280;48703;51.248;-0.546;2023-04-19T11:04:13;101818;;;13.40;70.17
62632;BME280;48703;51.248;-0.546;2023-04-19T11:07:15;101815;;;13.48;70.63
62632;BME280;48703;51.248;-0.546;2023-04-19T11:10:26;101818;;;13.51;69.49
62632;BME280;48703;51.248;-0.546;2023-04-19T11:13:19;101816;;;13.49;68.15
62632;BME280;48703;51.248;-0.546;2023-04-19T11:16:21;101811;;;13.47;68.19
62632;BME280;48703;51.248;-0.546;2023-04-19T11:19:23;101810;;;13.53;68.81
62632;BME280;48703;51.248;-0.546;2023-04-19T11:22:28;101807;;;13.62;67.78
62632;BME280;48703;51.248;-0.546;2023-04-19T11:25:27;101802;;;13.61;68.00
62632;BME280;48703;51.248;-0.546;2023-04-19T11:28:29;101802;;;13.60;68.23
62632;BME280;48703;51.248;-0.546;2023-04-19T11:31:31;101795;;;13.55;67.46
62632;BME280;48703;51.248;-0.546;2023-04-19T11:34:34;101790;;;13.60;68.41
62632;BME280;48703;51.248;-0.546;2023-04-19T11:37:36;101787;;;13.64;66.61
62632;BME280;48703;51.248;-0.546;2023-04-19T11:40:37;101784;;;13.67;66.87
62632;BME280;48703;51.248;-0.546;2023-04-19T11:43:39;101781;;;13.75;67.22
62632;BME280;48703;51.248;-0.546;2023-04-19T11:46:41;101777;;;13.78;66.25
62632;BME280;48703;51.248;-0.546;2023-04-19T11:49:43;101773;;;13.75;64.90
62632;BME280;48703;51.248;-0.546;2023-04-19T11:52:47;101774;;;13.69;63.70
62632;BME280;48703;51.248;-0.546;2023-04-19T11:55:47;101773;;;13.71;64.43
62632;BME280;48703;51.248;-0.546;2023-04-19T11:58:49;101768;;;13.74;64.11
62632;BME280;48703;51.248;-0.546;2023-04-19T12:01:51;101773;;;13.80;65.35
62632;BME280;48703;51.248;-0.546;2023-04-19T12:04:53;101775;;;13.89;64.83
62632;BME280;48703;51.248;-0.546;2023-04-19T12:07:58;101767;;;13.95;64.59
62632;BME280;48703;51.248;-0.546;2023-04-19T12:10:57;101766;;;13.94;63.68
62632;BME280;48703;51.248;-0.546;2023-04-19T12:14:07;101764;;;13.91;63.59
62632;BME280;48703;51.248;-0.546;2023-04-19T12:17:03;101759;;;13.92;64.56
62632;BME280;48703;51.248;-0.546;2023-04-19T12:20:03;101751;;;14.06;63.74
62632;BME280;48703;51.248;-0.546;2023-04-19T12:23:05;101754;;;14.24;64.24
62632;BME280;48703;51.248;-0.546;2023-04-19T12:26:07;101752;;;14.33;62.52
62632;BME280;48703;51.248;-0.546;2023-04-19T12:29:09;101751;;;14.40;63.03
62632;BME280;48703;51.248;-0.546;2023-04-19T12:32:11;101750;;;14.47;62.27
62632;BME280;48703;51.248;-0.546;2023-04-19T12:35:13;101750;;;14.57;61.56
62632;BME280;48703;51.248;-0.546;2023-04-19T12:38:15;101748;;;14.58;60.85
62632;BME280;48703;51.248;-0.546;2023-04-19T12:41:17;101744;;;14.61;61.29
62632;BME280;48703;51.248;-0.546;2023-04-19T12:44:19;101746;;;14.68;61.47
62632;BME280;48703;51.248;-0.546;2023-04-19T12:47:21;101737;;;14.73;61.73
62632;BME280;48703;51.248;-0.546;2023-04-19T12:50:23;101736;;;14.89;62.22
62632;BME280;48703;51.248;-0.546;2023-04-19T12:53:25;101738;;;15.02;60.48
62632;BME280;48703;51.248;-0.546;2023-04-19T12:56:27;101738;;;15.02;60.78
62632;BME280;48703;51.248;-0.546;2023-04-19T12:59:29;101740;;;15.01;60.47
62632;BME280;48703;51.248;-0.546;2023-04-19T13:02:32;101743;;;14.95;59.50
62632;BME280;48703;51.248;-0.546;2023-04-19T13:05:33;101739;;;14.88;59.99
62632;BME280;48703;51.248;-0.546;2023-04-19T13:08:35;101735;;;14.81;59.77
62632;BME280;48703;51.248;-0.546;2023-04-19T13:11:37;101735;;;14.87;61.48
62632;BME280;48703;51.248;-0.546;2023-04-19T13:14:39;101735;;;14.96;61.36
62632;BME280;48703;51.248;-0.546;2023-04-19T13:17:41;101739;;;15.04;61.26
62632;BME280;48703;51.248;-0.546;2023-04-19T13:20:43;101734;;;15.08;59.15
62632;BME280;48703;51.248;-0.546;2023-04-19T13:23:45;101732;;;15.13;59.40
62632;BME280;48703;51.248;-0.546;2023-04-19T13:26:47;101730;;;15.15;58.79
62632;BME280;48703;51.248;-0.546;2023-04-19T13:29:49;101724;;;15.17;58.27
62632;BME280;48703;51.248;-0.546;2023-04-19T13:32:51;101724;;;15.20;57.96
62632;BME280;48703;51.248;-0.546;2023-04-19T13:35:53;101720;;;15.18;58.36
62632;BME280;48703;51.248;-0.546;2023-04-19T13:38:55;101716;;;15.21;59.28
62632;BME280;48703;51.248;-0.546;2023-04-19T13:41:58;101720;;;15.32;59.44
62632;BME280;48703;51.248;-0.546;2023-04-19T13:45:00;101713;;;15.38;59.21
62632;BME280;48703;51.248;-0.546;2023-04-19T13:48:02;101710;;;15.42;58.58
62632;BME280;48703;51.248;-0.546;2023-04-19T13:51:04;101707;;;15.39;58.65
62632;BME280;48703;51.248;-0.546;2023-04-19T13:54:06;101707;;;15.42;58.40
62632;BME280;48703;51.248;-0.546;2023-04-19T13:57:08;101707;;;15.43;58.42
62632;BME280;48703;51.248;-0.546;2023-04-19T14:00:10;101702;;;15.37;57.47
62632;BME280;48703;51.248;-0.546;2023-04-19T14:03:12;101704;;;15.31;58.80
62632;BME280;48703;51.248;-0.546;2023-04-19T14:06:14;101697;;;15.25;58.02
62632;BME280;48703;51.248;-0.546;2023-04-19T14:09:16;101695;;;15.25;58.30
62632;BME280;48703;51.248;-0.546;2023-04-19T14:12:18;101693;;;15.40;58.88
62632;BME280;48703;51.248;-0.546;2023-04-19T14:15:20;101683;;;15.51;58.08
62632;BME280;48703;51.248;-0.546;2023-04-19T14:18:22;101687;;;15.55;57.66
62632;BME280;48703;51.248;-0.546;2023-04-19T14:21:24;101688;;;15.55;57.28
62632;BME280;48703;51.248;-0.546;2023-04-19T14:24:26;101685;;;15.47;56.39
62632;BME280;48703;51.248;-0.546;2023-04-19T14:27:28;101681;;;15.44;56.86
62632;BME280;48703;51.248;-0.546;2023-04-19T14:30:30;101681;;;15.56;57.60
62632;BME280;48703;51.248;-0.546;2023-04-19T14:33:32;101679;;;15.59;57.05
62632;BME280;48703;51.248;-0.546;2023-04-19T14:36:34;101675;;;15.55;56.14
62632;BME280;48703;51.248;-0.546;2023-04-19T14:39:36;101676;;;15.52;56.71
62632;BME280;48703;51.248;-0.546;2023-04-19T14:42:38;101670;;;15.51;56.90
62632;BME280;48703;51.248;-0.546;2023-04-19T14:45:40;101664;;;15.62;57.18
62632;BME280;48703;51.248;-0.546;2023-04-19T14:48:42;101661;;;15.76;57.19
62632;BME280;48703;51.248;-0.546;2023-04-19T14:51:44;101660;;;15.91;57.13
62632;BME280;48703;51.248;-0.546;2023-04-19T14:54:46;101655;;;16.02;56.17
62632;BME280;48703;51.248;-0.546;2023-04-19T14:57:48;101654;;;16.01;55.82
62632;BME280;48703;51.248;-0.546;2023-04-19T15:00:50;101655;;;16.06;56.89
62632;BME280;48703;51.248;-0.546;2023-04-19T15:03:52;101653;;;16.15;56.23
62632;BME280;48703;51.248;-0.546;2023-04-19T15:06:54;101654;;;16.13;54.78
62632;BME280;48703;51.248;-0.546;2023-04-19T15:09:56;101652;;;16.15;55.10
62632;BME280;48703;51.248;-0.546;2023-04-19T15:12:58;101654;;;16.14;53.94
62632;BME280;48703;51.248;-0.546;2023-04-19T15:16:00;101655;;;16.08;53.45
62632;BME280;48703;51.248;-0.546;2023-04-19T15:19:02;101660;;;16.03;52.90
62632;BME280;48703;51.248;-0.546;2023-04-19T15:22:04;101659;;;15.98;53.53
62632;BME280;48703;51.248;-0.546;2023-04-19T15:25:06;101659;;;15.97;53.44
62632;BME280;48703;51.248;-0.546;2023-04-19T15:28:08;101660;;;16.00;52.36
62632;BME280;48703;51.248;-0.546;2023-04-19T15:31:10;101659;;;15.95;51.09
62632;BME280;48703;51.248;-0.546;2023-04-19T15:34:12;101654;;;15.90;50.17
62632;BME280;48703;51.248;-0.546;2023-04-19T15:37:15;101657;;;15.90;51.59
62632;BME280;48703;51.248;-0.546;2023-04-19T15:40:16;101654;;;15.90;51.67
62632;BME280;48703;51.248;-0.546;2023-04-19T15:43:18;101663;;;15.89;52.21
62632;BME280;48703;51.248;-0.546;2023-04-19T15:46:20;101662;;;15.95;51.91
62632;BME280;48703;51.248;-0.546;2023-04-19T15:49:22;101661;;;15.93;51.17
62632;BME280;48703;51.248;-0.546;2023-04-19T15:52:24;101664;;;15.83;52.25
62632;BME280;48703;51.248;-0.546;2023-04-19T15:55:26;101668;;;15.87;51.73
62632;BME280;48703;51.248;-0.546;2023-04-19T15:58:28;101670;;;15.86;51.35
62632;BME280;48703;51.248;-0.546;2023-04-19T16:01:30;101671;;;15.79;50.99
62632;BME280;48703;51.248;-0.546;2023-04-19T16:04:32;101674;;;15.69;49.88
62632;BME280;48703;51.248;-0.546;2023-04-19T16:07:34;101669;;;15.55;50.00
62632;BME280;48703;51.248;-0.546;2023-04-19T16:10:36;101673;;;15.57;50.39
62632;BME280;48703;51.248;-0.546;2023-04-19T16:13:38;101669;;;15.52;49.04
62632;BME280;48703;51.248;-0.546;2023-04-19T16:16:40;101669;;;15.53;50.33
62632;BME280;48703;51.248;-0.546;2023-04-19T16:19:42;101674;;;15.65;50.57
62632;BME280;48703;51.248;-0.546;2023-04-19T16:22:44;101672;;;15.58;49.89